createdAt,value
2023-04-15T00:00:24.472Z,146.70
2023-04-15T00:01:24.472Z,145.30
2023-04-15T00:02:24.552Z,146.23
2023-04-15T00:03:24.626Z,145.66
2023-04-15T00:04:24.564Z,143.93
2023-04-15T00:05:24.457Z,142.76
2023-04-15T00:06:24.444Z,146.19
2023-04-15T00:07:24.432Z,146.49
2023-04-15T00:08:24.432Z,144.69
2023-04-15T00:09:24.410Z,145.74
2023-04-15T00:10:24.417Z,146.04
2023-04-15T00:11:24.397Z,146.87
2023-04-15T00:12:24.416Z,147.78
2023-04-15T00:13:24.396Z,147.42
2023-04-15T00:14:24.390Z,146.94
2023-04-15T00:15:24.390Z,146.62
2023-04-15T00:16:24.383Z,146.04
2023-04-15T00:17:24.383Z,145.87
2023-04-15T00:18:24.406Z,146.14
2023-04-15T00:19:24.396Z,145.68
2023-04-15T00:20:24.400Z,144.90
2023-04-15T00:21:24.389Z,145.55
2023-04-15T00:22:24.439Z,144.21
2023-04-15T00:23:24.406Z,141.21
2023-04-15T00:24:24.402Z,145.19
2023-04-15T00:25:24.386Z,142.72
2023-04-15T00:26:24.397Z,143.58
2023-04-15T00:27:24.373Z,144.21
2023-04-15T00:28:24.392Z,144.46
2023-04-15T00:29:24.386Z,143.95
2023-04-15T00:30:24.377Z,142.27
2023-04-15T00:31:24.465Z,141.35
2023-04-15T00:32:24.478Z,142.75
2023-04-15T00:33:24.416Z,143.83
2023-04-15T00:34:24.381Z,146.07
2023-04-15T00:35:24.348Z,145.55
2023-04-15T00:36:24.358Z,145.78
2023-04-15T00:37:24.370Z,146.00
2023-04-15T00:38:24.392Z,145.29
2023-04-15T00:39:24.350Z,146.59
2023-04-15T00:40:24.372Z,147.18
2023-04-15T00:41:24.361Z,146.36
2023-04-15T00:42:24.345Z,146.11
2023-04-15T00:43:24.382Z,144.62
2023-04-15T00:44:24.359Z,144.75
2023-04-15T00:45:24.364Z,144.31
2023-04-15T00:46:24.445Z,144.15
2023-04-15T00:47:24.349Z,145.25
2023-04-15T00:48:24.333Z,144.56
2023-04-15T00:49:24.318Z,142.33
2023-04-15T00:50:24.309Z,138.74
2023-04-15T00:51:24.322Z,138.03
2023-04-15T00:52:24.315Z,137.88
2023-04-15T00:53:24.314Z,139.09
2023-04-15T00:54:24.300Z,137.74
2023-04-15T00:55:24.312Z,137.04
2023-04-15T00:56:24.310Z,138.59
2023-04-15T00:57:24.289Z,139.63
2023-04-15T00:58:24.278Z,140.88
2023-04-15T00:59:24.288Z,140.88
2023-04-15T01:00:24.278Z,140.69
2023-04-15T01:01:24.278Z,140.19
2023-04-15T01:02:24.356Z,138.09
2023-04-15T01:03:24.338Z,134.58
2023-04-15T01:04:24.350Z,135.91
2023-04-15T01:05:24.254Z,135.02
2023-04-15T01:06:24.261Z,134.71
2023-04-15T01:07:24.254Z,134.19
2023-04-15T01:08:24.238Z,135.78
2023-04-15T01:09:24.231Z,136.09
2023-04-15T01:10:24.282Z,134.45
2023-04-15T01:11:24.233Z,133.81
2023-04-15T01:12:24.222Z,138.26
2023-04-15T01:13:24.237Z,137.43
2023-04-15T01:14:24.223Z,132.57
2023-04-15T01:15:24.225Z,130.43
2023-04-15T01:16:24.252Z,131.91
2023-04-15T01:17:24.221Z,130.60
2023-04-15T01:18:24.209Z,131.58
2023-04-15T01:19:24.243Z,132.62
2023-04-15T01:20:24.203Z,131.11
2023-04-15T01:21:24.235Z,130.56
2023-04-15T01:22:24.195Z,130.99
2023-04-15T01:23:24.218Z,132.63
2023-04-15T01:24:24.210Z,134.51
2023-04-15T01:25:24.193Z,131.06
2023-04-15T01:26:24.198Z,129.05
2023-04-15T01:27:24.198Z,127.74
2023-04-15T01:28:24.180Z,126.80
2023-04-15T01:29:24.183Z,128.41
2023-04-15T01:30:24.190Z,129.12
2023-04-15T01:31:24.237Z,128.11
2023-04-15T01:32:24.178Z,128.93
2023-04-15T01:33:24.169Z,128.00
2023-04-15T01:34:24.164Z,127.37
2023-04-15T01:35:24.194Z,128.39
2023-04-15T01:36:24.169Z,131.04
2023-04-15T01:37:24.173Z,130.58
2023-04-15T01:38:24.162Z,123.93
2023-04-15T01:39:24.156Z,123.44
2023-04-15T01:40:24.166Z,126.01
2023-04-15T01:41:24.166Z,124.42
2023-04-15T01:42:24.170Z,126.16
2023-04-15T01:43:24.149Z,121.50
2023-04-15T01:44:24.189Z,122.30
2023-04-15T01:45:24.162Z,124.53
2023-04-15T01:46:24.166Z,125.29
2023-04-15T01:47:24.195Z,120.82
2023-04-15T01:48:24.156Z,123.80
2023-04-15T01:49:24.139Z,124.25
2023-04-15T01:50:24.142Z,121.31
2023-04-15T01:51:24.141Z,119.06
2023-04-15T01:52:24.139Z,117.88
2023-04-15T01:53:24.140Z,118.59
2023-04-15T01:54:24.162Z,120.32
2023-04-15T01:55:24.143Z,119.52
2023-04-15T01:56:24.143Z,121.61
2023-04-15T01:57:24.156Z,120.87
2023-04-15T01:58:24.155Z,120.37
2023-04-15T01:59:24.169Z,118.89
2023-04-15T02:00:24.176Z,122.69
2023-04-15T02:01:24.204Z,118.11
2023-04-15T02:02:24.234Z,119.34
2023-04-15T02:03:24.212Z,116.02
2023-04-15T02:04:24.180Z,120.24
2023-04-15T02:05:24.157Z,119.40
2023-04-15T02:06:24.172Z,119.28
2023-04-15T02:07:24.167Z,117.96
2023-04-15T02:08:24.184Z,117.37
2023-04-15T02:09:24.183Z,119.14
2023-04-15T02:10:24.183Z,119.76
2023-04-15T02:11:24.196Z,119.26
2023-04-15T02:12:24.183Z,117.07
2023-04-15T02:13:24.206Z,117.28
2023-04-15T02:14:24.214Z,116.53
2023-04-15T02:15:24.207Z,113.71
2023-04-15T02:16:24.239Z,112.17
2023-04-15T02:17:24.209Z,115.40
2023-04-15T02:18:24.194Z,112.08
2023-04-15T02:19:24.196Z,114.97
2023-04-15T02:20:24.212Z,113.49
2023-04-15T02:21:24.200Z,117.43
2023-04-15T02:22:24.212Z,116.74
2023-04-15T02:23:24.218Z,115.32
2023-04-15T02:24:24.224Z,113.04
2023-04-15T02:25:24.241Z,112.18
2023-04-15T02:26:24.202Z,114.04
2023-04-15T02:27:24.225Z,113.66
2023-04-15T02:28:24.223Z,110.62
2023-04-15T02:29:24.228Z,109.84
2023-04-15T02:30:24.223Z,113.80
2023-04-15T02:31:24.268Z,111.42
2023-04-15T02:32:24.275Z,109.76
2023-04-15T02:33:24.240Z,110.87
2023-04-15T02:34:24.256Z,115.74
2023-04-15T02:35:24.251Z,112.46
2023-04-15T02:36:24.261Z,114.24
2023-04-15T02:37:24.242Z,113.05
2023-04-15T02:38:24.251Z,109.86
2023-04-15T02:39:24.248Z,109.76
2023-04-15T02:40:24.264Z,108.98
2023-04-15T02:41:24.265Z,109.32
2023-04-15T02:42:24.269Z,104.89
2023-04-15T02:43:24.309Z,100.27
2023-04-15T02:44:24.290Z,105.78
2023-04-15T02:45:24.323Z,106.39
2023-04-15T02:46:24.419Z,112.94
2023-04-15T02:47:24.327Z,107.90
2023-04-15T02:48:24.350Z,110.04
2023-04-15T02:49:24.353Z,104.89
2023-04-15T02:50:24.358Z,102.72
2023-04-15T02:51:24.367Z,102.89
2023-04-15T02:52:24.381Z,100.13
2023-04-15T02:53:24.374Z,101.77
2023-04-15T02:54:24.396Z,102.76
2023-04-15T02:55:24.409Z,104.95
2023-04-15T02:56:24.411Z,109.17
2023-04-15T02:57:24.405Z,108.47
2023-04-15T02:58:24.411Z,106.86
2023-04-15T02:59:24.434Z,105.73
2023-04-15T03:00:24.441Z,104.55
2023-04-15T03:01:24.497Z,105.11
2023-04-15T03:02:24.766Z,98.55
2023-04-15T03:03:24.518Z,99.16
2023-04-15T03:04:24.472Z,99.74
2023-04-15T03:05:24.493Z,99.38
2023-04-15T03:06:24.479Z,107.25
2023-04-15T03:07:24.503Z,104.38
2023-04-15T03:08:24.521Z,101.70
2023-04-15T03:09:24.508Z,107.48
2023-04-15T03:10:24.519Z,102.07
2023-04-15T03:11:24.524Z,103.87
2023-04-15T03:12:24.541Z,104.87
2023-04-15T03:13:24.526Z,103.91
2023-04-15T03:14:24.535Z,104.00
2023-04-15T03:15:24.539Z,101.71
2023-04-15T03:16:24.532Z,103.97
2023-04-15T03:17:24.537Z,97.15
2023-04-15T03:18:24.531Z,100.80
2023-04-15T03:19:24.551Z,104.74
2023-04-15T03:20:24.560Z,102.25
2023-04-15T03:21:24.558Z,99.82
2023-04-15T03:22:24.579Z,104.11
2023-04-15T03:23:24.566Z,104.44
2023-04-15T03:24:24.557Z,104.40
2023-04-15T03:25:24.573Z,104.84
2023-04-15T03:26:24.569Z,101.86
2023-04-15T03:27:24.580Z,98.45
2023-04-15T03:28:24.569Z,98.74
2023-04-15T03:29:24.565Z,100.67
2023-04-15T03:30:24.576Z,104.91
2023-04-15T03:31:24.598Z,101.64
2023-04-15T03:32:24.610Z,106.57
2023-04-15T03:33:24.585Z,105.03
2023-04-15T03:34:24.612Z,106.00
2023-04-15T03:35:24.588Z,102.73
2023-04-15T03:36:24.630Z,104.05
2023-04-15T03:37:24.626Z,107.91
2023-04-15T03:38:24.619Z,107.40
2023-04-15T03:39:24.615Z,101.92
2023-04-15T03:40:24.636Z,101.55
2023-04-15T03:41:24.643Z,100.29
2023-04-15T03:42:24.662Z,98.38
2023-04-15T03:43:24.662Z,101.00
2023-04-15T03:44:24.647Z,98.93
2023-04-15T03:45:24.681Z,101.83
2023-04-15T03:46:24.712Z,103.26
2023-04-15T03:47:24.685Z,101.99
2023-04-15T03:48:24.736Z,107.83
2023-04-15T03:49:24.682Z,105.01
2023-04-15T03:50:24.682Z,105.18
2023-04-15T03:51:24.716Z,104.95
2023-04-15T03:52:24.704Z,103.00
2023-04-15T03:53:24.701Z,100.19
2023-04-15T03:54:24.681Z,101.59
2023-04-15T03:55:24.692Z,96.22
2023-04-15T03:56:24.693Z,97.28
2023-04-15T03:57:24.712Z,99.58
2023-04-15T03:58:24.718Z,102.96
2023-04-15T03:59:24.721Z,101.38
2023-04-15T04:00:24.735Z,99.17
2023-04-15T04:01:24.729Z,104.26
2023-04-15T04:02:24.906Z,103.81
2023-04-15T04:03:25.002Z,106.81
2023-04-15T04:04:24.940Z,105.66
2023-04-15T04:05:24.745Z,102.74
2023-04-15T04:06:24.740Z,104.21
2023-04-15T04:07:24.752Z,102.20
2023-04-15T04:08:24.757Z,97.75
2023-04-15T04:09:24.773Z,100.29
2023-04-15T04:10:24.781Z,104.07
2023-04-15T04:11:24.779Z,104.90
2023-04-15T04:12:24.791Z,103.84
2023-04-15T04:13:24.811Z,103.31
2023-04-15T04:14:24.814Z,103.91
2023-04-15T04:15:24.855Z,102.79
2023-04-15T04:16:24.964Z,102.78
2023-04-15T04:17:24.873Z,103.11
2023-04-15T04:18:24.844Z,99.06
2023-04-15T04:19:24.851Z,102.96
2023-04-15T04:20:24.866Z,99.51
2023-04-15T04:21:24.889Z,99.98
2023-04-15T04:22:24.894Z,100.52
2023-04-15T04:23:24.892Z,102.81
2023-04-15T04:24:24.900Z,101.36
2023-04-15T04:25:24.922Z,99.31
2023-04-15T04:26:24.944Z,101.82
2023-04-15T04:27:24.953Z,95.98
2023-04-15T04:28:24.968Z,96.23
2023-04-15T04:29:24.976Z,96.51
2023-04-15T04:30:24.989Z,91.37
2023-04-15T04:31:25.038Z,91.43
2023-04-15T04:32:25.031Z,93.97
2023-04-15T04:33:25.041Z,93.03
2023-04-15T04:34:25.030Z,93.70
2023-04-15T04:35:25.045Z,88.95
2023-04-15T04:36:25.068Z,88.09
2023-04-15T04:37:25.070Z,88.98
2023-04-15T04:38:25.076Z,89.08
2023-04-15T04:39:25.098Z,86.55
2023-04-15T04:40:25.132Z,85.59
2023-04-15T04:41:25.140Z,91.24
2023-04-15T04:42:25.148Z,88.06
2023-04-15T04:43:25.150Z,89.63
2023-04-15T04:44:25.172Z,88.96
2023-04-15T04:45:25.182Z,93.62
2023-04-15T04:46:25.203Z,94.33
2023-04-15T04:47:25.246Z,87.80
2023-04-15T04:48:25.221Z,87.69
2023-04-15T04:49:25.235Z,85.55
2023-04-15T04:50:25.256Z,87.57
2023-04-15T04:51:25.269Z,90.70
2023-04-15T04:52:25.275Z,91.86
2023-04-15T04:53:25.281Z,92.01
2023-04-15T04:54:25.294Z,87.77
2023-04-15T04:55:25.299Z,89.31
2023-04-15T04:56:25.302Z,95.41
2023-04-15T04:57:25.297Z,90.78
2023-04-15T04:58:25.322Z,91.74
2023-04-15T04:59:25.316Z,92.50
2023-04-15T05:00:25.357Z,94.24
2023-04-15T05:01:25.354Z,91.08
2023-04-15T05:02:25.441Z,94.26
2023-04-15T05:03:25.457Z,92.86
2023-04-15T05:04:25.341Z,89.09
2023-04-15T05:05:25.357Z,87.03
2023-04-15T05:06:25.380Z,88.27
2023-04-15T05:07:25.367Z,88.26
2023-04-15T05:08:25.376Z,90.67
2023-04-15T05:09:25.402Z,92.58
2023-04-15T05:10:25.407Z,97.16
2023-04-15T05:11:25.425Z,90.35
2023-04-15T05:12:25.418Z,93.98
2023-04-15T05:13:25.468Z,92.35
2023-04-15T05:14:25.452Z,89.16
2023-04-15T05:15:25.458Z,92.86
2023-04-15T05:16:25.468Z,93.68
2023-04-15T05:17:25.527Z,96.44
2023-04-15T05:18:25.528Z,93.14
2023-04-15T05:19:25.514Z,97.51
2023-04-15T05:20:25.511Z,93.40
2023-04-15T05:21:25.540Z,96.75
2023-04-15T05:22:25.554Z,94.65
2023-04-15T05:23:25.586Z,98.08
2023-04-15T05:24:25.577Z,98.85
2023-04-15T05:25:25.578Z,93.38
2023-04-15T05:26:25.602Z,102.15
2023-04-15T05:27:25.617Z,102.59
2023-04-15T05:28:25.619Z,99.08
2023-04-15T05:29:25.620Z,101.34
2023-04-15T05:30:25.651Z,98.61
2023-04-15T05:31:25.658Z,99.22
2023-04-15T05:32:25.691Z,100.25
2023-04-15T05:33:25.681Z,102.87
2023-04-15T05:34:25.675Z,99.66
2023-04-15T05:35:25.701Z,97.98
2023-04-15T05:36:25.722Z,98.88
2023-04-15T05:37:25.716Z,99.42
2023-04-15T05:38:25.728Z,103.77
2023-04-15T05:39:25.743Z,111.25
2023-04-15T05:40:25.772Z,106.13
2023-04-15T05:41:25.786Z,109.63
2023-04-15T05:42:25.804Z,107.31
2023-04-15T05:43:25.801Z,103.17
2023-04-15T05:44:25.826Z,101.84
2023-04-15T05:45:25.819Z,102.42
2023-04-15T05:46:25.909Z,103.72
2023-04-15T05:47:25.854Z,106.62
2023-04-15T05:48:25.845Z,104.89
2023-04-15T05:49:25.860Z,102.93
2023-04-15T05:50:25.856Z,106.09
2023-04-15T05:51:25.868Z,106.44
2023-04-15T05:52:25.879Z,101.40
2023-04-15T05:53:25.878Z,101.69
2023-04-15T05:54:25.902Z,98.04
2023-04-15T05:55:25.902Z,99.71
2023-04-15T05:56:25.934Z,101.28
2023-04-15T05:57:25.928Z,92.13
2023-04-15T05:58:25.936Z,97.39
2023-04-15T05:59:25.968Z,95.94
2023-04-15T06:00:25.944Z,90.31
2023-04-15T06:01:25.971Z,91.78
2023-04-15T06:02:26.037Z,90.30
2023-04-15T06:03:26.079Z,90.16
2023-04-15T06:04:26.127Z,97.33
2023-04-15T06:05:25.991Z,95.99
2023-04-15T06:06:26.008Z,94.85
2023-04-15T06:07:25.995Z,86.33
2023-04-15T06:08:26.011Z,87.26
2023-04-15T06:09:26.016Z,91.34
2023-04-15T06:10:26.027Z,96.30
2023-04-15T06:11:26.028Z,94.12
2023-04-15T06:12:26.034Z,92.71
2023-04-15T06:13:26.041Z,101.74
2023-04-15T06:14:26.038Z,98.15
2023-04-15T06:15:26.082Z,104.06
2023-04-15T06:16:26.067Z,111.26
2023-04-15T06:17:26.100Z,99.48
2023-04-15T06:18:26.073Z,106.04
2023-04-15T06:19:26.080Z,110.27
2023-04-15T06:20:26.092Z,108.37
2023-04-15T06:21:26.081Z,109.16
2023-04-15T06:22:26.099Z,94.70
2023-04-15T06:23:27.032Z,106.47
2023-04-15T06:24:26.103Z,104.01
2023-04-15T06:25:26.111Z,90.93
2023-04-15T06:26:26.107Z,103.01
2023-04-15T06:27:26.108Z,115.39
2023-04-15T06:28:26.104Z,113.64
2023-04-15T06:29:26.122Z,126.95
2023-04-15T06:30:26.120Z,126.32
2023-04-15T06:31:26.121Z,127.34
2023-04-15T06:32:26.167Z,132.26
2023-04-15T06:33:26.112Z,128.35
2023-04-15T06:34:26.130Z,133.44
2023-04-15T06:35:26.140Z,130.31
2023-04-15T06:36:26.111Z,129.27
2023-04-15T06:37:26.113Z,137.46
2023-04-15T06:38:26.138Z,135.43
2023-04-15T06:39:26.134Z,133.69
2023-04-15T06:40:26.129Z,138.71
2023-04-15T06:41:26.130Z,137.74
2023-04-15T06:42:26.122Z,139.72
2023-04-15T06:43:26.120Z,143.53
2023-04-15T06:44:26.169Z,141.92
2023-04-15T06:45:26.195Z,140.27
2023-04-15T06:46:26.215Z,149.08
2023-04-15T06:47:26.137Z,143.59
2023-04-15T06:48:26.101Z,125.44
2023-04-15T06:49:26.101Z,135.11
2023-04-15T06:50:26.158Z,140.10
2023-04-15T06:51:26.842Z,136.94
2023-04-15T06:52:26.117Z,143.29
2023-04-15T06:53:26.099Z,140.12
2023-04-15T06:54:26.108Z,140.26
2023-04-15T06:55:26.111Z,137.32
2023-04-15T06:56:26.099Z,146.98
2023-04-15T06:57:26.088Z,122.97
2023-04-15T06:58:26.092Z,132.83
2023-04-15T06:59:26.094Z,141.03
2023-04-15T07:00:26.142Z,127.88
2023-04-15T07:01:26.115Z,128.66
2023-04-15T07:02:26.152Z,113.49
2023-04-15T07:03:26.069Z,123.14
2023-04-15T07:04:26.131Z,126.85
2023-04-15T07:05:26.070Z,130.76
2023-04-15T07:06:26.086Z,130.35
2023-04-15T07:07:26.070Z,130.00
2023-04-15T07:08:26.076Z,130.96
2023-04-15T07:09:26.057Z,129.32
2023-04-15T07:10:26.089Z,127.65
2023-04-15T07:11:26.078Z,125.90
2023-04-15T07:12:26.057Z,119.82
2023-04-15T07:13:26.059Z,116.02
2023-04-15T07:14:26.058Z,107.14
2023-04-15T07:15:26.078Z,113.65
2023-04-15T07:17:26.173Z,97.81
2023-04-15T07:18:26.155Z,94.94
2023-04-15T07:19:26.156Z,86.07
2023-04-15T07:20:26.306Z,78.44
2023-04-15T07:21:26.217Z,80.18
2023-04-15T07:22:26.296Z,71.49
2023-04-15T07:23:26.297Z,78.49
2023-04-15T07:24:26.325Z,77.46
2023-04-15T07:25:26.334Z,71.45
2023-04-15T07:26:26.379Z,73.48
2023-04-15T07:27:26.403Z,71.29
2023-04-15T07:28:26.449Z,71.54
2023-04-15T07:29:26.449Z,73.81
2023-04-15T07:30:26.511Z,75.37
2023-04-15T07:31:26.554Z,76.90
2023-04-15T07:32:26.569Z,70.49
2023-04-15T07:33:26.545Z,68.51
2023-04-15T07:34:26.624Z,70.36
2023-04-15T07:35:26.675Z,73.09
2023-04-15T07:36:26.689Z,70.32
2023-04-15T07:37:26.744Z,67.75
2023-04-15T07:38:26.790Z,69.29
2023-04-15T07:39:26.854Z,67.11
2023-04-15T07:40:26.894Z,67.38
2023-04-15T07:41:26.956Z,68.98
2023-04-15T07:42:27.025Z,71.76
2023-04-15T07:43:27.073Z,69.50
2023-04-15T07:44:27.115Z,69.51
2023-04-15T07:45:27.180Z,68.70
2023-04-15T07:46:27.348Z,70.46
2023-04-15T07:47:27.345Z,68.37
2023-04-15T07:48:27.381Z,70.12
2023-04-15T07:49:27.439Z,68.43
2023-04-15T07:50:27.507Z,69.51
2023-04-15T07:51:27.558Z,69.80
2023-04-15T07:52:27.649Z,68.07
2023-04-15T07:53:27.757Z,71.58
2023-04-15T07:54:27.731Z,72.06
2023-04-15T07:55:28.304Z,69.31
2023-04-15T07:56:27.867Z,68.73
2023-04-15T07:57:27.935Z,70.77
2023-04-15T07:58:27.975Z,69.72
2023-04-15T07:59:28.049Z,68.17
2023-04-15T08:00:28.106Z,68.15
2023-04-15T08:01:28.174Z,68.01
2023-04-15T08:02:28.279Z,66.07
2023-04-15T08:03:28.404Z,70.04
2023-04-15T08:04:28.457Z,66.53
2023-04-15T08:05:28.420Z,65.59
2023-04-15T08:06:28.466Z,64.71
2023-04-15T08:07:28.533Z,65.37
2023-04-15T08:08:28.584Z,65.21
2023-04-15T08:09:28.657Z,72.15
2023-04-15T08:10:28.717Z,70.74
2023-04-15T08:11:28.770Z,74.67
2023-04-15T08:12:28.816Z,75.81
2023-04-15T08:13:28.876Z,75.61
2023-04-15T08:14:28.943Z,73.46
2023-04-15T08:15:29.000Z,68.63
2023-04-15T08:16:29.084Z,61.51
2023-04-15T08:17:29.136Z,61.24
2023-04-15T08:18:29.174Z,60.98
2023-04-15T08:19:29.201Z,58.55
2023-04-15T08:20:29.258Z,58.96
2023-04-15T08:21:29.284Z,57.99
2023-04-15T08:22:29.338Z,55.23
2023-04-15T08:23:29.387Z,58.53
2023-04-15T08:24:29.439Z,62.93
2023-04-15T08:25:29.505Z,68.36
2023-04-15T08:26:29.541Z,71.26
2023-04-15T08:27:29.605Z,76.19
2023-04-15T08:28:29.648Z,72.95
2023-04-15T08:29:29.689Z,80.43
2023-04-15T08:30:29.733Z,77.66
2023-04-15T08:31:29.835Z,75.30
2023-04-15T08:32:29.822Z,75.11
2023-04-15T08:33:29.862Z,61.53
2023-04-15T08:34:29.881Z,57.06
2023-04-15T08:35:29.940Z,54.09
2023-04-15T08:36:29.965Z,53.03
2023-04-15T08:37:30.003Z,53.23
2023-04-15T08:38:30.048Z,55.50
2023-04-15T08:39:30.092Z,52.20
2023-04-15T08:40:30.124Z,53.81
2023-04-15T08:41:30.171Z,52.81
2023-04-15T08:42:30.206Z,47.32
2023-04-15T08:43:30.250Z,47.27
2023-04-15T08:44:30.266Z,46.36
2023-04-15T08:45:30.310Z,52.97
2023-04-15T08:46:30.377Z,55.92
2023-04-15T08:47:30.377Z,55.35
2023-04-15T08:48:30.379Z,58.67
2023-04-15T08:49:30.441Z,64.44
2023-04-15T08:50:30.426Z,70.46
2023-04-15T08:51:30.440Z,78.45
2023-04-15T08:52:30.466Z,75.35
2023-04-15T08:53:30.513Z,79.78
2023-04-15T08:54:30.492Z,82.01
2023-04-15T08:55:30.523Z,84.19
2023-04-15T08:56:30.541Z,81.45
2023-04-15T08:57:30.531Z,85.49
2023-04-15T08:58:30.554Z,95.58
2023-04-15T08:59:30.550Z,98.19
2023-04-15T09:00:30.561Z,94.05
2023-04-15T09:01:30.596Z,107.03
2023-04-15T09:02:30.636Z,108.93
2023-04-15T09:03:30.701Z,112.69
2023-04-15T09:04:30.597Z,105.24
2023-04-15T09:05:30.574Z,111.27
2023-04-15T09:06:30.578Z,114.71
2023-04-15T09:07:30.557Z,118.12
2023-04-15T09:08:30.552Z,113.67
2023-04-15T09:09:30.563Z,108.97
2023-04-15T09:10:30.565Z,112.56
2023-04-15T09:11:30.543Z,115.16
2023-04-15T09:12:30.545Z,118.00
2023-04-15T09:13:30.572Z,119.02
2023-04-15T09:14:30.572Z,118.18
2023-04-15T09:15:30.579Z,117.28
2023-04-15T09:16:30.589Z,123.83
2023-04-15T09:17:30.630Z,121.78
2023-04-15T09:18:30.590Z,126.10
2023-04-15T09:19:30.580Z,124.46
2023-04-15T09:20:30.587Z,127.08
2023-04-15T09:21:30.594Z,127.55
2023-04-15T09:22:30.578Z,124.25
2023-04-15T09:23:30.598Z,126.45
2023-04-15T09:24:30.589Z,120.62
2023-04-15T09:25:32.809Z,119.10
2023-04-15T09:26:30.570Z,117.16
2023-04-15T09:27:30.563Z,116.70
2023-04-15T09:28:30.574Z,121.02
2023-04-15T09:29:30.561Z,116.86
2023-04-15T09:30:30.591Z,113.06
2023-04-15T09:31:30.532Z,112.11
2023-04-15T09:32:30.588Z,108.84
2023-04-15T09:33:30.524Z,109.91
2023-04-15T09:34:30.521Z,109.21
2023-04-15T09:35:30.510Z,100.02
2023-04-15T09:36:30.500Z,97.37
2023-04-15T09:37:32.649Z,93.92
2023-04-15T09:38:30.493Z,99.63
2023-04-15T09:39:30.500Z,101.77
2023-04-15T09:40:30.476Z,95.60
2023-04-15T09:41:30.502Z,92.09
2023-04-15T09:42:30.467Z,95.02
2023-04-15T09:43:30.486Z,97.17
2023-04-15T09:44:30.552Z,96.02
2023-04-15T09:45:30.621Z,95.56
2023-04-15T09:46:30.779Z,96.93
2023-04-15T09:47:30.781Z,90.46
2023-04-15T09:48:30.803Z,90.86
2023-04-15T09:49:30.864Z,87.45
2023-04-15T09:50:30.916Z,94.83
2023-04-15T09:51:30.967Z,96.99
2023-04-15T09:52:31.008Z,93.23
2023-04-15T09:53:31.948Z,95.12
2023-04-15T09:54:31.097Z,93.84
2023-04-15T09:55:31.167Z,95.53
2023-04-15T09:56:31.206Z,83.73
2023-04-15T09:57:31.269Z,85.19
2023-04-15T09:58:31.292Z,85.54
2023-04-15T09:59:31.333Z,81.79
2023-04-15T10:00:31.375Z,82.35
2023-04-15T10:01:31.461Z,80.27
2023-04-15T10:02:31.546Z,81.97
2023-04-15T10:03:31.589Z,83.36
2023-04-15T10:04:31.535Z,77.75
2023-04-15T10:05:31.570Z,76.74
2023-04-15T10:06:31.615Z,79.03
2023-04-15T10:07:31.673Z,77.97
2023-04-15T10:08:31.690Z,77.04
2023-04-15T10:09:31.727Z,77.44
2023-04-15T10:10:31.754Z,80.96
2023-04-15T10:11:31.969Z,83.88
2023-04-15T10:12:31.838Z,85.56
2023-04-15T10:13:31.878Z,79.73
2023-04-15T10:14:31.907Z,85.48
2023-04-15T10:15:31.982Z,85.24
2023-04-15T10:16:31.996Z,79.81
2023-04-15T10:17:32.057Z,77.62
2023-04-15T10:18:32.075Z,82.98
2023-04-15T10:19:32.116Z,87.64
2023-04-15T10:20:32.144Z,85.67
2023-04-15T10:21:32.196Z,84.09
2023-04-15T10:22:32.223Z,81.72
2023-04-15T10:23:32.275Z,82.22
2023-04-15T10:24:32.315Z,82.25
2023-04-15T10:25:32.359Z,82.82
2023-04-15T10:26:32.392Z,80.25
2023-04-15T10:27:32.447Z,86.78
2023-04-15T10:28:32.475Z,84.08
2023-04-15T10:29:32.594Z,80.34
2023-04-15T10:30:32.550Z,83.98
2023-04-15T10:31:32.710Z,83.61
2023-04-15T10:32:32.651Z,86.65
2023-04-15T10:33:32.680Z,95.48
2023-04-15T10:34:32.728Z,91.89
2023-04-15T10:35:32.747Z,89.42
2023-04-15T10:36:32.781Z,90.72
2023-04-15T10:37:32.814Z,87.58
2023-04-15T10:38:32.872Z,91.67
2023-04-15T10:39:32.918Z,96.59
2023-04-15T10:40:32.943Z,102.23
2023-04-15T10:41:33.016Z,95.41
2023-04-15T10:42:33.074Z,90.28
2023-04-15T10:43:33.094Z,90.80
2023-04-15T10:44:33.130Z,98.41
2023-04-15T10:45:33.188Z,99.40
2023-04-15T10:46:33.273Z,91.32
2023-04-15T10:47:33.289Z,93.06
2023-04-15T10:48:33.330Z,96.34
2023-04-15T10:49:33.370Z,94.23
2023-04-15T10:50:33.429Z,98.84
2023-04-15T10:51:33.457Z,105.70
2023-04-15T10:52:33.513Z,105.85
2023-04-15T10:53:33.552Z,107.30
2023-04-15T10:54:33.597Z,104.21
2023-04-15T10:55:33.654Z,101.62
2023-04-15T10:56:33.701Z,100.90
2023-04-15T10:57:33.745Z,113.00
2023-04-15T10:58:33.792Z,114.75
2023-04-15T10:59:33.831Z,112.30
2023-04-15T11:00:33.888Z,112.20
2023-04-15T11:01:33.963Z,113.26
2023-04-15T11:02:34.226Z,117.58
2023-04-15T11:03:34.256Z,122.26
2023-04-15T11:04:34.148Z,119.63
2023-04-15T11:05:34.121Z,116.61
2023-04-15T11:06:34.192Z,114.24
2023-04-15T11:07:34.242Z,116.42
2023-04-15T11:08:34.279Z,118.32
2023-04-15T11:09:34.349Z,117.35
2023-04-15T11:10:34.404Z,112.16
2023-04-15T11:11:34.458Z,99.26
2023-04-15T11:12:34.501Z,109.16
2023-04-15T11:13:34.562Z,104.97
2023-04-15T11:14:34.621Z,106.08
2023-04-15T11:15:34.664Z,112.16
2023-04-15T11:16:34.751Z,114.18
2023-04-15T11:17:34.791Z,107.99
2023-04-15T11:18:34.846Z,100.52
2023-04-15T11:19:34.869Z,110.43
2023-04-15T11:20:34.934Z,121.04
2023-04-15T11:21:34.980Z,113.79
2023-04-15T11:22:35.044Z,110.81
2023-04-15T11:23:35.097Z,116.61
2023-04-15T11:24:35.151Z,103.91
2023-04-15T11:25:35.198Z,101.07
2023-04-15T11:26:35.244Z,94.18
2023-04-15T11:27:35.311Z,104.05
2023-04-15T11:28:36.737Z,96.02
2023-04-15T11:29:35.406Z,106.44
2023-04-15T11:30:35.458Z,109.38
2023-04-15T11:31:35.544Z,113.12
2023-04-15T11:32:35.574Z,117.34
2023-04-15T11:33:35.602Z,110.15
2023-04-15T11:34:36.205Z,120.18
2023-04-15T11:35:35.718Z,116.91
2023-04-15T11:36:35.785Z,116.93
2023-04-15T11:37:35.825Z,114.58
2023-04-15T11:38:35.878Z,114.09
2023-04-15T11:39:35.915Z,115.13
2023-04-15T11:40:35.977Z,128.57
2023-04-15T11:41:36.040Z,122.32
2023-04-15T11:42:48.590Z,122.77
2023-04-15T11:43:37.095Z,123.32
2023-04-15T11:44:36.069Z,123.91
2023-04-15T11:45:36.183Z,126.63
2023-04-15T11:46:36.075Z,124.39
2023-04-15T11:47:36.110Z,134.43
2023-04-15T11:48:36.071Z,137.01
2023-04-15T11:49:36.066Z,124.92
2023-04-15T11:50:36.041Z,136.41
2023-04-15T11:51:36.034Z,134.06
2023-04-15T11:52:36.039Z,119.65
2023-04-15T11:53:36.096Z,117.39
2023-04-15T11:54:36.155Z,129.88
2023-04-15T11:55:36.220Z,132.62
2023-04-15T11:56:36.294Z,127.55
2023-04-15T11:57:36.331Z,137.66
2023-04-15T11:58:36.394Z,133.30
2023-04-15T11:59:44.980Z,130.35
2023-04-15T12:00:37.453Z,130.47
2023-04-15T12:01:36.477Z,120.51
2023-04-15T12:02:36.476Z,117.97
2023-04-15T12:03:36.521Z,120.41
2023-04-15T12:04:36.532Z,128.66
2023-04-15T12:05:36.419Z,119.67
2023-04-15T12:06:36.400Z,119.63
2023-04-15T12:07:36.385Z,104.58
2023-04-15T12:08:36.377Z,103.87
2023-04-15T12:09:36.393Z,108.09
2023-04-15T12:10:36.489Z,99.28
2023-04-15T12:11:36.534Z,94.71
2023-04-15T12:12:36.593Z,94.17
2023-04-15T12:13:36.655Z,104.90
2023-04-15T12:14:36.731Z,77.34
2023-04-15T12:15:36.839Z,79.51
2023-04-15T12:16:44.546Z,77.07
2023-04-15T12:17:51.553Z,72.49
2023-04-15T12:18:37.843Z,77.30
2023-04-15T12:19:36.820Z,78.49
2023-04-15T12:20:36.814Z,77.74
2023-04-15T12:21:36.808Z,57.78
2023-04-15T12:22:36.802Z,74.15
2023-04-15T12:23:36.811Z,83.26
2023-04-15T12:24:36.789Z,80.28
2023-04-15T12:25:36.801Z,70.81
2023-04-15T12:26:36.799Z,71.72
2023-04-15T12:27:36.772Z,67.42
2023-04-15T12:28:36.758Z,70.63
2023-04-15T12:29:36.774Z,82.81
2023-04-15T12:30:36.754Z,88.78
2023-04-15T12:31:36.813Z,85.82
2023-04-15T12:32:36.763Z,85.31
2023-04-15T12:33:36.760Z,94.05
2023-04-15T12:34:36.749Z,81.41
2023-04-15T12:35:36.736Z,80.39
2023-04-15T12:36:36.706Z,82.59
2023-04-15T12:37:36.705Z,86.34
2023-04-15T12:38:36.706Z,78.92
2023-04-15T12:39:36.712Z,78.51